Wattensaw, Arkansas
Current Conditions -  °F | °C
As of 1:58 PM on Sunday 23 Nov 2014 (Local Time) from KLRF Reporting Station
Overcast Overcast  
Wind Chill: 61°   Ceiling: 400
Heat Index: 61°   Visibility: 10mi
Dew Point: 60°   Wind: 3mph
Humidity: 99%   Direction: 170°S
Pressure: 29.36"   Gusts: NA
Location:  34.7557°N, 91.9476°W
Report Text: KLRF 231958Z AUTO 17003KT 10SM OVC004 16/16 A2936 RMK AO2 RAE1937DZB1937E1942 SLP944 P0003 T01590157
Loading
Personal Weather Stations






























Interactive Weather Map New forecast layout! Learn more

10-Day Weather Forecast

Advertisements
Track Severe Weather on mobile